Time;durP1;ratioP1;P1;durP2;ratioP2;P2;SDS_P1;SDS_P2;PMS_P1;PMS_P2;Temp;Humidity;BMP_temperature;BMP_pressure;BME280_temperature;BME280_humidity;BME280_pressure;Samples;Min_cycle;Max_cycle;Signal;HPM_P1;HPM_P2
2023/05/20 00:02:08;;;;;;;6.70;3.87;;;15.20;99.90;;;;;;5066369;28;20221;-78
2023/05/20 00:04:35;;;;;;;10.50;4.57;;;15.30;99.90;;;;;;5062071;28;20194;-83
2023/05/20 00:07:02;;;;;;;8.10;3.67;;;15.40;99.90;;;;;;5064225;28;20220;-79
2023/05/20 00:09:28;;;;;;;11.57;4.67;;;15.50;99.90;;;;;;5099814;27;20233;-79
2023/05/20 00:11:55;;;;;;;9.30;4.30;;;15.50;99.90;;;;;;5081058;28;20214;-83
2023/05/20 00:14:21;;;;;;;11.23;4.97;;;15.50;99.90;;;;;;5064164;28;20190;-83
2023/05/20 00:16:47;;;;;;;14.13;4.80;;;15.50;99.90;;;;;;5082972;28;20277;-78
2023/05/20 00:19:13;;;;;;;10.97;4.80;;;15.50;99.90;;;;;;5083068;28;20182;-79
2023/05/20 00:21:39;;;;;;;11.53;4.77;;;15.30;99.90;;;;;;5099587;27;20189;-79
2023/05/20 00:24:06;;;;;;;13.43;4.60;;;15.30;99.90;;;;;;5083014;28;20213;-79
2023/05/20 00:26:32;;;;;;;11.07;4.40;;;15.40;99.90;;;;;;5080642;28;20193;-79
2023/05/20 00:28:58;;;;;;;11.87;4.67;;;15.50;99.90;;;;;;5082136;28;20241;-78
2023/05/20 00:31:25;;;;;;;10.70;4.43;;;15.60;99.90;;;;;;5062104;28;20291;-79
2023/05/20 00:33:51;;;;;;;10.90;4.17;;;15.60;99.90;;;;;;5066443;28;20182;-83
2023/05/20 00:36:17;;;;;;;9.87;4.50;;;15.60;99.90;;;;;;5082477;28;20197;-79
2023/05/20 00:38:44;;;;;;;9.67;4.80;;;15.60;99.90;;;;;;5086536;28;20185;-79
2023/05/20 00:41:10;;;;;;;10.50;4.60;;;15.60;99.90;;;;;;5080388;28;20194;-79
2023/05/20 00:43:36;;;;;;;10.30;4.20;;;15.60;99.90;;;;;;5082772;28;20934;-83
2023/05/20 00:46:02;;;;;;;9.07;4.20;;;15.50;99.90;;;;;;5083267;28;20330;-79
2023/05/20 00:48:42;;;;;;;20.07;5.13;;;15.50;99.90;;;;;;5068275;28;20450;-79
2023/05/20 00:51:10;;;;;;;8.30;3.90;;;15.60;99.90;;;;;;5074896;28;20217;-78
2023/05/20 00:53:36;;;;;;;10.53;4.50;;;15.60;99.90;;;;;;5096304;28;20182;-79
2023/05/20 00:56:04;;;;;;;10.27;3.93;;;15.50;99.90;;;;;;5080826;28;20196;-79
2023/05/20 00:58:31;;;;;;;10.13;4.30;;;15.40;99.90;;;;;;5067588;28;20190;-84
2023/05/20 01:00:57;;;;;;;11.47;3.67;;;15.30;99.90;;;;;;5063024;28;20252;-80
2023/05/20 01:03:24;;;;;;;11.53;4.90;;;15.40;99.90;;;;;;5109103;27;20311;-79
2023/05/20 01:05:50;;;;;;;8.03;4.63;;;15.40;99.90;;;;;;5063800;28;20313;-79
2023/05/20 01:08:17;;;;;;;9.37;4.90;;;15.50;99.90;;;;;;5085131;28;20287;-83
2023/05/20 01:10:55;;;;;;;15.00;5.00;;;15.50;99.90;;;;;;5111673;27;20232;-79
2023/05/20 01:13:32;;;;;;;11.63;4.70;;;15.50;99.90;;;;;;5110447;27;20186;-83
2023/05/20 01:16:01;;;;;;;11.87;4.80;;;15.40;99.90;;;;;;5077370;28;20197;-79
2023/05/20 01:18:31;;;;;;;15.90;5.23;;;15.40;99.90;;;;;;5057911;28;20192;-83
2023/05/20 01:21:01;;;;;;;11.93;4.77;;;15.40;99.90;;;;;;5086628;28;20186;-79
2023/05/20 01:23:41;;;;;;;16.70;5.20;;;15.40;99.90;;;;;;5082588;28;20193;-83
2023/05/20 01:26:12;;;;;;;11.57;4.67;;;15.20;99.90;;;;;;5063688;28;20196;-83
2023/05/20 01:28:42;;;;;;;14.27;4.67;;;15.20;99.90;;;;;;5094325;28;20201;-79
2023/05/20 01:31:32;;;;;;;13.50;4.77;;;15.20;99.90;;;;;;5064058;28;20268;-83
2023/05/20 01:34:00;;;;;;;9.10;4.23;;;15.10;99.90;;;;;;5093449;28;20292;-83
2023/05/20 01:36:30;;;;;;;13.23;5.37;;;15.10;99.90;;;;;;5099568;28;20719;-83
2023/05/20 01:38:58;;;;;;;11.67;4.77;;;15.20;99.90;;;;;;5066766;28;20182;-79
2023/05/20 01:41:26;;;;;;;9.07;4.87;;;15.30;99.90;;;;;;5067849;28;20224;-83
2023/05/20 01:43:54;;;;;;;14.93;5.07;;;15.30;99.90;;;;;;5085422;28;20193;-80
2023/05/20 01:46:20;;;;;;;13.97;4.57;;;15.10;99.90;;;;;;5065934;28;20190;-80
2023/05/20 01:48:47;;;;;;;9.50;4.63;;;15.10;99.90;;;;;;5067313;28;20189;-84
2023/05/20 01:51:13;;;;;;;13.13;5.00;;;15.20;99.90;;;;;;5068704;28;20580;-79
2023/05/20 01:53:39;;;;;;;11.10;5.10;;;15.30;99.90;;;;;;5109808;27;20277;-79
2023/05/20 01:56:06;;;;;;;14.37;4.93;;;15.30;99.90;;;;;;5069813;28;20218;-79
2023/05/20 01:58:32;;;;;;;14.27;4.93;;;15.30;99.90;;;;;;5065691;28;20190;-80
2023/05/20 02:00:59;;;;;;;13.63;5.03;;;15.30;99.90;;;;;;5109259;27;20198;-80
2023/05/20 02:03:25;;;;;;;11.63;4.47;;;15.30;99.90;;;;;;5063839;28;20215;-83
2023/05/20 02:05:51;;;;;;;14.70;4.87;;;15.20;99.90;;;;;;5081097;28;20194;-79
2023/05/20 02:08:17;;;;;;;8.70;4.27;;;15.20;99.90;;;;;;5088035;28;20217;-84
2023/05/20 02:10:47;;;;;;;13.93;5.10;;;15.20;99.90;;;;;;5089073;28;20198;-80
2023/05/20 02:13:14;;;;;;;9.90;4.27;;;15.20;99.90;;;;;;5087051;28;20197;-79
2023/05/20 02:15:43;;;;;;;12.10;4.47;;;15.30;99.90;;;;;;5091046;28;20190;-84
2023/05/20 02:18:11;;;;;;;13.03;4.43;;;15.30;99.90;;;;;;5089459;28;20758;-84
2023/05/20 02:20:37;;;;;;;13.43;4.70;;;15.30;99.90;;;;;;5086053;28;20478;-84
2023/05/20 02:23:07;;;;;;;10.13;4.67;;;15.20;99.90;;;;;;5066682;28;20663;-79
2023/05/20 02:25:33;;;;;;;11.30;4.87;;;15.20;99.90;;;;;;5100733;28;20182;-79
2023/05/20 02:28:04;;;;;;;12.23;5.00;;;15.20;99.90;;;;;;5080013;28;20271;-79
2023/05/20 02:30:31;;;;;;;12.60;4.30;;;15.30;99.90;;;;;;5082235;28;20282;-83
2023/05/20 02:32:58;;;;;;;9.87;4.40;;;15.30;99.90;;;;;;5083125;28;20209;-79
2023/05/20 02:35:24;;;;;;;14.13;4.70;;;15.30;99.90;;;;;;5088726;28;20182;-80
2023/05/20 02:37:51;;;;;;;12.93;4.53;;;15.30;99.90;;;;;;5112447;27;20191;-84
2023/05/20 02:40:17;;;;;;;12.80;4.63;;;15.20;99.90;;;;;;5063312;28;20198;-79
2023/05/20 02:42:43;;;;;;;11.53;4.87;;;15.20;99.90;;;;;;5099504;28;20259;-79
2023/05/20 02:45:10;;;;;;;13.80;4.50;;;15.20;99.90;;;;;;5085231;28;20266;-83
2023/05/20 02:47:36;;;;;;;15.30;4.90;;;15.30;99.90;;;;;;5083635;28;20202;-83
2023/05/20 02:50:03;;;;;;;10.57;4.53;;;15.30;99.90;;;;;;5080534;28;20205;-80
2023/05/20 02:52:29;;;;;;;14.80;4.73;;;15.30;99.90;;;;;;5069649;28;20242;-79
2023/05/20 02:54:56;;;;;;;13.10;4.97;;;15.30;99.90;;;;;;5081719;28;20200;-83
2023/05/20 02:57:22;;;;;;;13.60;5.40;;;15.30;99.90;;;;;;5066926;28;20243;-83
2023/05/20 02:59:51;;;;;;;11.43;4.57;;;15.30;99.90;;;;;;5083326;28;20191;-79
2023/05/20 03:02:17;;;;;;;16.33;6.03;;;15.40;99.90;;;;;;5084106;28;20255;-79
2023/05/20 03:04:45;;;;;;;14.57;5.07;;;15.40;99.90;;;;;;5059435;28;20959;-80
2023/05/20 03:07:11;;;;;;;12.90;4.83;;;15.40;99.90;;;;;;5066624;28;20191;-78
2023/05/20 03:09:38;;;;;;;12.30;4.53;;;15.40;99.90;;;;;;5082641;28;20541;-83
2023/05/20 03:12:05;;;;;;;17.37;5.33;;;15.40;99.90;;;;;;5084016;28;20245;-79
2023/05/20 03:14:31;;;;;;;10.93;4.90;;;15.40;99.90;;;;;;5060369;28;20182;-80
2023/05/20 03:16:58;;;;;;;12.27;4.87;;;15.40;99.90;;;;;;5066612;28;20189;-79
2023/05/20 03:19:25;;;;;;;14.13;5.27;;;15.40;99.90;;;;;;5098931;27;20624;-79
2023/05/20 03:21:52;;;;;;;15.20;5.03;;;15.40;99.90;;;;;;5083582;28;20252;-83
2023/05/20 03:24:18;;;;;;;11.67;4.70;;;15.50;99.90;;;;;;5069939;28;20252;-79
2023/05/20 03:26:45;;;;;;;13.90;4.77;;;15.50;99.90;;;;;;5097824;27;20213;-78
2023/05/20 03:29:12;;;;;;;16.23;4.83;;;15.50;99.90;;;;;;5084872;28;20190;-84
2023/05/20 03:31:38;;;;;;;13.87;5.20;;;15.60;99.90;;;;;;5079324;28;20293;-79
2023/05/20 03:34:04;;;;;;;15.83;4.90;;;15.60;99.90;;;;;;5066181;28;20195;-79
2023/05/20 03:36:31;;;;;;;10.80;4.43;;;15.60;99.90;;;;;;5067766;28;20182;-83
2023/05/20 03:38:57;;;;;;;13.33;4.30;;;15.60;99.90;;;;;;5066256;28;20196;-80
2023/05/20 03:41:23;;;;;;;10.57;4.53;;;15.50;99.90;;;;;;5082097;28;20194;-80
2023/05/20 03:43:50;;;;;;;10.07;4.60;;;15.50;99.90;;;;;;5065285;28;20325;-84
2023/05/20 03:46:16;;;;;;;15.97;4.33;;;15.50;99.90;;;;;;5065351;28;20190;-84
2023/05/20 03:48:42;;;;;;;11.53;4.47;;;15.50;99.90;;;;;;5067069;28;20197;-84
2023/05/20 03:51:08;;;;;;;12.90;4.47;;;15.50;99.90;;;;;;5064918;28;21105;-78
2023/05/20 03:53:35;;;;;;;10.27;4.30;;;15.50;99.90;;;;;;5065974;28;20181;-82
2023/05/20 03:56:01;;;;;;;10.87;4.63;;;15.60;99.90;;;;;;5082773;28;20274;-79
2023/05/20 03:58:28;;;;;;;10.97;4.30;;;15.60;99.90;;;;;;5109658;27;20197;-85
2023/05/20 04:00:55;;;;;;;12.23;4.60;;;15.60;99.90;;;;;;5068368;28;20213;-83
2023/05/20 04:03:21;;;;;;;13.47;5.03;;;15.60;99.90;;;;;;5057761;28;20190;-84
2023/05/20 04:05:49;;;;;;;10.37;4.40;;;15.70;99.90;;;;;;5081403;28;20240;-79
2023/05/20 04:08:17;;;;;;;14.27;4.60;;;15.70;99.90;;;;;;5082057;28;20190;-83
2023/05/20 04:10:45;;;;;;;10.03;4.00;;;15.70;99.90;;;;;;5065848;28;20186;-82
2023/05/20 04:13:11;;;;;;;12.30;4.97;;;15.70;99.90;;;;;;5109950;27;20648;-79
2023/05/20 04:15:38;;;;;;;14.13;5.00;;;15.80;99.90;;;;;;5090827;28;20186;-85
2023/05/20 04:18:05;;;;;;;11.63;4.27;;;15.80;99.90;;;;;;5084662;28;20182;-79
2023/05/20 04:20:31;;;;;;;10.63;4.43;;;15.80;99.90;;;;;;5062973;28;20704;-84
2023/05/20 04:22:58;;;;;;;15.40;5.40;;;15.90;99.90;;;;;;5063104;28;20712;-79
2023/05/20 04:25:25;;;;;;;15.23;4.17;;;16.00;99.90;;;;;;5064972;28;20243;-80
2023/05/20 04:27:53;;;;;;;16.83;4.90;;;16.10;99.90;;;;;;5095110;28;20220;-83
2023/05/20 04:30:20;;;;;;;7.90;3.83;;;16.20;99.90;;;;;;5081002;28;20213;-82
2023/05/20 04:32:49;;;;;;;11.10;4.37;;;16.20;99.90;;;;;;5061940;28;20302;-79
2023/05/20 04:35:15;;;;;;;11.47;4.63;;;16.30;99.90;;;;;;5082283;28;20190;-84
2023/05/20 04:37:46;;;;;;;14.13;4.67;;;16.40;99.90;;;;;;5062153;28;20182;-79
2023/05/20 04:40:13;;;;;;;12.63;4.40;;;16.50;99.90;;;;;;5058396;28;20194;-83
2023/05/20 04:42:39;;;;;;;9.73;3.90;;;16.50;99.90;;;;;;5113738;27;20205;-85
2023/05/20 04:45:07;;;;;;;8.07;4.03;;;16.60;99.90;;;;;;5094785;28;20197;-83
2023/05/20 04:47:37;;;;;;;12.83;4.10;;;16.70;99.90;;;;;;5087542;28;20230;-85
2023/05/20 04:50:12;;;;;;;11.07;4.63;;;16.70;99.90;;;;;;5069860;28;20218;-79
2023/05/20 04:52:39;;;;;;;12.87;3.63;;;16.80;99.90;;;;;;5112767;27;20217;-82
2023/05/20 04:55:09;;;;;;;11.97;3.80;;;16.90;99.90;;;;;;5061649;28;20194;-85
2023/05/20 04:57:38;;;;;;;11.57;3.80;;;16.90;99.90;;;;;;5110577;27;20198;-79
2023/05/20 05:00:06;;;;;;;7.67;4.27;;;16.90;99.90;;;;;;5067422;28;20238;-80
2023/05/20 05:02:34;;;;;;;10.93;4.27;;;17.00;99.90;;;;;;5108911;27;20276;-85
2023/05/20 05:05:00;;;;;;;14.37;4.37;;;17.10;99.90;;;;;;5078084;28;20182;-84
2023/05/20 05:07:26;;;;;;;11.47;4.40;;;17.20;99.90;;;;;;5080169;28;20201;-80
2023/05/20 05:09:53;;;;;;;14.13;4.37;;;17.20;99.90;;;;;;5112090;27;20624;-79
2023/05/20 05:12:19;;;;;;;9.93;3.87;;;17.20;99.90;;;;;;5097930;27;20209;-84
2023/05/20 05:14:46;;;;;;;12.70;4.20;;;17.30;99.90;;;;;;5056227;28;20190;-78
2023/05/20 05:17:12;;;;;;;11.40;4.40;;;17.30;99.90;;;;;;5094805;28;20244;-77
2023/05/20 05:19:40;;;;;;;13.10;4.70;;;17.30;99.90;;;;;;5063567;28;20193;-84
2023/05/20 05:22:07;;;;;;;7.93;4.33;;;17.30;99.90;;;;;;5094802;28;20248;-82
2023/05/20 05:24:33;;;;;;;11.17;4.00;;;17.40;99.90;;;;;;5104168;28;20194;-78
2023/05/20 05:26:59;;;;;;;11.43;4.17;;;17.40;99.90;;;;;;5079961;28;20190;-83
2023/05/20 05:29:26;;;;;;;10.23;4.80;;;17.50;99.90;;;;;;5078003;28;20281;-77
2023/05/20 05:31:52;;;;;;;12.40;5.13;;;17.50;99.90;;;;;;5075618;28;20238;-77
2023/05/20 05:34:18;;;;;;;11.17;4.90;;;17.60;99.90;;;;;;5079654;28;20338;-78
2023/05/20 05:36:45;;;;;;;10.30;4.47;;;17.60;99.90;;;;;;5089782;28;20183;-77
2023/05/20 05:39:11;;;;;;;10.87;5.20;;;17.60;99.90;;;;;;5063147;28;20231;-77
2023/05/20 05:41:38;;;;;;;12.97;4.80;;;17.60;99.90;;;;;;5062688;28;20191;-85
2023/05/20 05:44:04;;;;;;;13.17;4.97;;;17.50;99.90;;;;;;5080745;28;20197;-77
2023/05/20 05:46:31;;;;;;;9.40;4.90;;;17.50;99.90;;;;;;5082473;28;20197;-79
2023/05/20 05:48:58;;;;;;;10.17;4.73;;;17.50;99.90;;;;;;5082824;28;20223;-80
2023/05/20 05:51:26;;;;;;;9.60;4.43;;;17.60;99.90;;;;;;5082884;28;20695;-77
2023/05/20 05:53:57;;;;;;;10.63;5.20;;;17.80;99.90;;;;;;5081390;28;20189;-77
2023/05/20 05:56:23;;;;;;;6.97;4.50;;;17.80;99.90;;;;;;5078487;28;20240;-83
2023/05/20 05:58:50;;;;;;;10.93;4.70;;;17.80;99.90;;;;;;5110854;28;20492;-82
2023/05/20 06:01:18;;;;;;;10.27;5.20;;;17.80;99.90;;;;;;5098134;28;20718;-77
2023/05/20 06:03:45;;;;;;;13.30;5.17;;;17.70;99.90;;;;;;5066710;28;20220;-82
2023/05/20 06:06:11;;;;;;;10.00;4.77;;;17.70;99.90;;;;;;5079530;28;20243;-78
2023/05/20 06:08:38;;;;;;;10.17;4.90;;;17.70;99.90;;;;;;5083084;28;20194;-77
2023/05/20 06:11:04;;;;;;;9.80;5.43;;;17.70;99.90;;;;;;5060072;28;20219;-82
2023/05/20 06:13:30;;;;;;;10.13;4.83;;;17.80;99.90;;;;;;5066710;28;20221;-82
2023/05/20 06:15:57;;;;;;;9.90;4.70;;;17.80;99.90;;;;;;5082393;28;20182;-77
2023/05/20 06:18:23;;;;;;;9.43;4.60;;;17.80;99.90;;;;;;5078391;28;20553;-82
2023/05/20 06:20:59;;;;;;;10.90;4.60;;;17.90;99.90;;;;;;5065482;28;20648;-77
2023/05/20 06:23:26;;;;;;;8.17;5.30;;;17.90;99.90;;;;;;5079276;28;20656;-82
2023/05/20 06:25:52;;;;;;;8.47;4.80;;;17.90;99.90;;;;;;5063996;28;20721;-77
2023/05/20 06:28:19;;;;;;;11.93;4.67;;;17.90;99.90;;;;;;5078654;28;20194;-83
2023/05/20 06:30:45;;;;;;;12.13;4.70;;;17.90;99.90;;;;;;5078140;28;20192;-78
2023/05/20 06:33:12;;;;;;;6.73;4.43;;;17.80;99.90;;;;;;5065737;28;20547;-78
2023/05/20 06:35:38;;;;;;;8.63;4.13;;;17.90;99.90;;;;;;5078370;28;20212;-78
2023/05/20 06:38:04;;;;;;;9.03;4.67;;;18.10;99.90;;;;;;5103610;27;20667;-79
2023/05/20 06:40:31;;;;;;;8.27;4.50;;;18.30;99.90;;;;;;5085803;28;20616;-84
2023/05/20 06:42:57;;;;;;;11.27;4.80;;;18.30;99.90;;;;;;5064596;28;20205;-79
2023/05/20 06:45:23;;;;;;;9.37;4.20;;;18.60;99.90;;;;;;5065711;28;20186;-83
2023/05/20 06:47:50;;;;;;;10.23;3.60;;;18.60;99.90;;;;;;5064857;28;20193;-85
2023/05/20 06:50:18;;;;;;;8.37;4.10;;;18.70;99.90;;;;;;5097020;27;20194;-76
2023/05/20 06:52:44;;;;;;;12.57;4.30;;;18.90;99.90;;;;;;5088062;28;20222;-78
2023/05/20 06:55:11;;;;;;;11.20;3.77;;;18.90;99.90;;;;;;5070163;28;20269;-77
2023/05/20 06:57:37;;;;;;;11.37;4.03;;;19.00;99.90;;;;;;5114616;27;20870;-84
2023/05/20 07:00:05;;;;;;;9.00;3.50;;;19.10;99.90;;;;;;5064441;28;20189;-78
2023/05/20 07:02:33;;;;;;;8.93;4.03;;;19.10;99.90;;;;;;5078895;28;20202;-77
2023/05/20 07:04:59;;;;;;;7.47;3.73;;;19.20;99.90;;;;;;5100143;28;20198;-86
2023/05/20 07:07:26;;;;;;;7.30;3.50;;;19.40;99.90;;;;;;5080928;28;20236;-87
2023/05/20 07:09:54;;;;;;;7.83;3.57;;;19.50;99.90;;;;;;5065258;28;20204;-84
2023/05/20 07:12:20;;;;;;;7.37;3.27;;;19.60;99.90;;;;;;5081236;28;20210;-86
2023/05/20 07:14:46;;;;;;;6.20;3.40;;;19.70;99.90;;;;;;5087538;28;20198;-83
2023/05/20 07:17:12;;;;;;;7.27;3.67;;;19.70;99.90;;;;;;5083076;28;20542;-77
2023/05/20 07:19:39;;;;;;;5.47;3.03;;;19.90;99.90;;;;;;5082625;28;20256;-83
2023/05/20 07:22:05;;;;;;;5.63;2.93;;;19.90;99.90;;;;;;5086392;28;20251;-80
2023/05/20 07:24:34;;;;;;;8.20;4.30;;;20.00;99.90;;;;;;5078255;28;20225;-79
2023/05/20 07:27:00;;;;;;;15.47;4.83;;;20.00;99.90;;;;;;5083893;28;20560;-84
2023/05/20 07:29:26;;;;;;;10.40;4.10;;;19.80;99.90;;;;;;5073637;28;20197;-77
2023/05/20 07:31:53;;;;;;;14.03;4.70;;;19.70;99.90;;;;;;5109735;27;20207;-84
2023/05/20 07:34:21;;;;;;;9.93;4.33;;;19.70;99.90;;;;;;5069282;28;20347;-83
2023/05/20 07:36:48;;;;;;;12.60;4.27;;;19.60;99.90;;;;;;5099208;28;20187;-80
2023/05/20 07:39:15;;;;;;;9.97;4.60;;;19.60;99.90;;;;;;5087042;28;20190;-76
2023/05/20 07:41:42;;;;;;;12.27;4.63;;;19.50;99.90;;;;;;5088588;28;20178;-77
2023/05/20 07:44:10;;;;;;;8.50;4.83;;;19.50;99.90;;;;;;5088179;28;20190;-81
2023/05/20 07:46:37;;;;;;;10.87;4.47;;;19.50;99.90;;;;;;5092375;28;20189;-81
2023/05/20 07:49:04;;;;;;;10.63;3.93;;;19.50;99.90;;;;;;5086069;28;20204;-81
2023/05/20 07:51:31;;;;;;;10.13;4.70;;;19.50;99.90;;;;;;5066825;28;20325;-78
2023/05/20 07:53:57;;;;;;;8.70;4.07;;;19.60;99.90;;;;;;5060439;28;20182;-81
2023/05/20 07:56:25;;;;;;;13.87;4.77;;;19.80;99.90;;;;;;5064749;28;20179;-78
2023/05/20 07:58:58;;;;;;;10.17;4.13;;;20.00;99.90;;;;;;5117514;27;20173;-78
2023/05/20 08:01:26;;;;;;;9.43;4.00;;;20.20;99.90;;;;;;5085773;28;20213;-75
2023/05/20 08:03:53;;;;;;;10.30;4.20;;;20.40;99.90;;;;;;5109703;27;20197;-83
2023/05/20 08:06:20;;;;;;;11.87;4.70;;;20.50;99.90;;;;;;5084817;28;20198;-78
2023/05/20 08:08:47;;;;;;;10.50;4.30;;;20.60;99.90;;;;;;5065635;28;20266;-77
2023/05/20 08:11:13;;;;;;;9.63;4.53;;;20.80;99.90;;;;;;5059082;28;20293;-79
2023/05/20 08:13:40;;;;;;;9.10;4.30;;;21.00;99.90;;;;;;5083769;28;20253;-82
2023/05/20 08:16:06;;;;;;;10.80;4.27;;;21.10;99.90;;;;;;5097531;27;20546;-82
2023/05/20 08:18:37;;;;;;;8.63;4.30;;;20.90;99.90;;;;;;5082729;28;20492;-77
2023/05/20 08:21:08;;;;;;;22.47;4.90;;;20.70;99.90;;;;;;5083060;28;20186;-80
2023/05/20 08:23:36;;;;;;;8.90;4.50;;;20.50;99.90;;;;;;5084881;28;20209;-83
2023/05/20 08:26:02;;;;;;;10.33;4.60;;;20.40;99.90;;;;;;5082522;28;20327;-84
2023/05/20 08:28:30;;;;;;;9.70;4.40;;;20.60;99.90;;;;;;5086711;28;20923;-76
2023/05/20 08:31:02;;;;;;;8.60;4.23;;;20.90;99.90;;;;;;5068169;28;20217;-82
2023/05/20 08:33:30;;;;;;;11.90;4.40;;;21.10;99.90;;;;;;5113072;27;20186;-79
2023/05/20 08:35:56;;;;;;;11.17;4.73;;;21.30;99.90;;;;;;5088274;28;20191;-79
2023/05/20 08:38:22;;;;;;;9.20;4.00;;;21.40;99.90;;;;;;5088083;28;20190;-81
2023/05/20 08:40:55;;;;;;;6.60;3.93;;;21.40;99.90;;;;;;5067417;28;20183;-79
2023/05/20 08:43:24;;;;;;;9.60;3.90;;;21.50;99.90;;;;;;5064261;28;20190;-84
2023/05/20 08:45:53;;;;;;;8.73;3.20;;;21.40;99.90;;;;;;5070471;28;20189;-81
2023/05/20 08:48:27;;;;;;;8.53;3.90;;;21.00;99.90;;;;;;5087384;28;20638;-77
2023/05/20 08:50:56;;;;;;;11.93;3.70;;;20.70;99.90;;;;;;5084158;28;20255;-79
2023/05/20 08:53:23;;;;;;;10.53;3.77;;;20.60;99.90;;;;;;5098602;27;20194;-81
2023/05/20 08:55:56;;;;;;;12.40;3.60;;;20.90;99.90;;;;;;5088926;28;20190;-77
2023/05/20 08:58:27;;;;;;;8.93;3.50;;;21.20;99.90;;;;;;5054739;28;20185;-77
2023/05/20 09:00:55;;;;;;;9.93;3.57;;;21.60;99.90;;;;;;5082279;28;20226;-82
2023/05/20 09:03:22;;;;;;;9.67;3.43;;;21.60;99.90;;;;;;5082371;28;20555;-76
2023/05/20 09:05:49;;;;;;;7.37;3.40;;;21.50;99.90;;;;;;5081347;28;20182;-81
2023/05/20 09:08:15;;;;;;;7.60;3.20;;;21.70;99.90;;;;;;5082004;28;20540;-79
2023/05/20 09:10:42;;;;;;;6.32;3.33;;;21.90;99.90;;;;;;5081014;28;20178;-80
2023/05/20 09:13:10;;;;;;;11.47;3.10;;;21.90;99.90;;;;;;5063074;28;20950;-82
2023/05/20 09:15:37;;;;;;;13.43;3.40;;;22.10;99.90;;;;;;5070745;28;20218;-83
2023/05/20 09:18:06;;;;;;;9.15;3.28;;;22.20;99.90;;;;;;5079686;28;20267;-80
2023/05/20 09:20:37;;;;;;;8.90;3.53;;;22.30;99.90;;;;;;5058995;28;20197;-84
2023/05/20 09:23:08;;;;;;;8.57;3.13;;;22.30;99.90;;;;;;5099046;28;20567;-82
2023/05/20 09:25:36;;;;;;;7.45;3.53;;;22.40;99.90;;;;;;5081762;28;20687;-80
2023/05/20 09:28:08;;;;;;;10.27;3.50;;;22.50;99.90;;;;;;5093179;28;20221;-82
2023/05/20 09:30:36;;;;;;;9.45;3.70;;;22.40;99.90;;;;;;5081538;28;20228;-77
2023/05/20 09:33:04;;;;;;;8.30;3.70;;;22.50;99.90;;;;;;5080787;28;20725;-84
2023/05/20 09:35:37;;;;;;;10.88;3.63;;;22.70;99.90;;;;;;5082667;28;20179;-84
2023/05/20 09:38:08;;;;;;;8.15;3.15;;;22.50;99.90;;;;;;5115899;28;20201;-77
2023/05/20 09:40:39;;;;;;;10.90;3.80;;;22.60;99.90;;;;;;5083831;28;20189;-77
2023/05/20 09:43:06;;;;;;;9.60;3.67;;;22.70;99.90;;;;;;5084038;28;20731;-82
2023/05/20 09:45:33;;;;;;;8.95;4.00;;;22.80;99.90;;;;;;5067869;28;20271;-75
2023/05/20 09:48:01;;;;;;;6.72;3.28;;;22.90;99.90;;;;;;5072900;28;20194;-82
2023/05/20 09:50:29;;;;;;;8.55;4.00;;;22.90;99.90;;;;;;5080307;28;20305;-82
2023/05/20 09:52:55;;;;;;;10.32;3.65;;;23.00;99.90;;;;;;5079592;28;20238;-84
2023/05/20 09:55:24;;;;;;;7.75;3.10;;;22.90;99.90;;;;;;5060204;28;20182;-80
2023/05/20 09:57:53;;;;;;;8.98;3.72;;;23.00;99.90;;;;;;5079474;28;20218;-84
2023/05/20 10:00:20;;;;;;;12.98;3.65;;;22.90;99.90;;;;;;5061194;28;20240;-85
2023/05/20 10:02:51;;;;;;;10.10;3.67;;;23.10;99.90;;;;;;5081606;28;20708;-85
2023/05/20 10:05:26;;;;;;;7.38;3.22;;;23.10;99.90;;;;;;5078878;28;20185;-82
2023/05/20 10:08:39;;;;;;;9.52;3.67;;;23.20;99.90;;;;;;5110478;27;20193;-78
2023/05/20 10:11:59;;;;;;;10.73;3.97;;;23.30;99.90;;;;;;5084150;28;20211;-78
2023/05/20 10:15:03;;;;;;;7.15;3.63;;;23.30;99.90;;;;;;5067910;27;20249;-78
2023/05/20 10:18:02;;;;;;;9.18;3.42;;;23.20;99.90;;;;;;5086700;28;20269;-80
2023/05/20 10:20:30;;;;;;;11.27;3.63;;;23.20;99.90;;;;;;5085023;28;20510;-78
2023/05/20 10:22:59;;;;;;;9.30;3.65;;;23.30;99.90;;;;;;5064571;28;20960;-78
2023/05/20 10:25:29;;;;;;;9.40;3.45;;;23.30;99.90;;;;;;5064646;28;20197;-86
2023/05/20 10:28:08;;;;;;;9.63;3.60;;;23.30;99.90;;;;;;5082105;28;20216;-77
2023/05/20 10:30:35;;;;;;;9.02;3.95;;;23.30;99.90;;;;;;5064194;28;20174;-76
2023/05/20 10:33:07;;;;;;;10.15;3.63;;;23.30;99.90;;;;;;5086627;28;20314;-78
2023/05/20 10:35:33;;;;;;;11.93;4.30;;;23.20;99.90;;;;;;5084537;28;20267;-78
2023/05/20 10:38:11;;;;;;;8.35;3.25;;;23.20;99.90;;;;;;5085836;28;20357;-86
2023/05/20 10:40:40;;;;;;;11.82;3.90;;;23.30;99.90;;;;;;5097094;28;20190;-78
2023/05/20 10:43:15;;;;;;;10.10;3.67;;;23.30;99.90;;;;;;5104311;27;20672;-83
2023/05/20 10:45:56;;;;;;;8.20;3.60;;;23.30;99.90;;;;;;5086231;28;20205;-77
2023/05/20 10:48:32;;;;;;;7.47;3.70;;;23.20;99.90;;;;;;5082691;28;20187;-78
2023/05/20 10:51:05;;;;;;;9.18;4.00;;;23.20;99.90;;;;;;5084897;28;20224;-86
2023/05/20 10:53:45;;;;;;;7.07;3.53;;;23.20;99.90;;;;;;5059947;28;20187;-79
2023/05/20 10:56:20;;;;;;;9.25;3.72;;;23.10;99.90;;;;;;5081748;28;20654;-82
2023/05/20 10:58:47;;;;;;;8.60;3.80;;;23.10;99.90;;;;;;5085006;28;20197;-79
2023/05/20 11:01:17;;;;;;;8.35;3.65;;;23.10;99.90;;;;;;5080122;28;20187;-83
2023/05/20 11:03:48;;;;;;;8.98;3.33;;;23.10;99.90;;;;;;5068099;28;20197;-77
2023/05/20 11:06:17;;;;;;;8.93;3.72;;;23.20;99.90;;;;;;5068356;28;20209;-78
2023/05/20 11:08:44;;;;;;;5.82;3.03;;;23.20;99.90;;;;;;5086115;28;20652;-85
2023/05/20 11:11:13;;;;;;;7.50;3.53;;;23.00;99.90;;;;;;5066800;28;20206;-83
2023/05/20 11:13:40;;;;;;;7.28;3.28;;;23.20;99.90;;;;;;5085667;28;20808;-81
2023/05/20 11:16:07;;;;;;;10.43;3.70;;;23.20;99.90;;;;;;5063151;28;20251;-84
2023/05/20 11:18:34;;;;;;;10.40;3.50;;;23.40;99.90;;;;;;5066384;28;20178;-76
2023/05/20 11:21:02;;;;;;;8.48;3.40;;;23.50;99.90;;;;;;5069681;28;20571;-85
2023/05/20 11:23:29;;;;;;;9.95;3.35;;;23.50;99.90;;;;;;5064915;28;20277;-80
2023/05/20 11:26:05;;;;;;;8.05;3.40;;;23.50;99.90;;;;;;5067069;28;20192;-79
2023/05/20 11:28:34;;;;;;;9.75;3.15;;;23.50;99.90;;;;;;5083018;28;20189;-84
2023/05/20 11:31:00;;;;;;;14.55;3.90;;;23.50;99.90;;;;;;5082988;28;20662;-87
2023/05/20 11:33:28;;;;;;;9.38;3.72;;;23.40;99.90;;;;;;5084438;28;20182;-75
2023/05/20 11:35:56;;;;;;;9.73;3.70;;;23.40;99.90;;;;;;5062987;28;20340;-79
2023/05/20 11:38:23;;;;;;;6.35;3.58;;;23.40;99.90;;;;;;5081512;28;20256;-80
2023/05/20 11:40:56;;;;;;;10.93;3.60;;;23.40;99.90;;;;;;5098752;28;20232;-83
2023/05/20 11:43:23;;;;;;;8.65;3.30;;;23.40;99.90;;;;;;5084530;28;20195;-78
2023/05/20 11:45:59;;;;;;;9.35;3.60;;;23.40;99.90;;;;;;5086933;28;20182;-82
2023/05/20 11:48:26;;;;;;;8.27;3.42;;;23.40;99.90;;;;;;5063359;28;20179;-77
2023/05/20 11:50:55;;;;;;;10.90;3.53;;;23.30;99.90;;;;;;5080765;28;20532;-83
2023/05/20 11:53:23;;;;;;;9.93;3.17;;;23.30;99.90;;;;;;5082442;28;20185;-80
2023/05/20 11:55:55;;;;;;;10.30;3.03;;;23.30;99.90;;;;;;5080563;28;20246;-82
2023/05/20 11:58:43;;;;;;;11.65;3.72;;;23.20;99.90;;;;;;5092355;28;20596;-85
2023/05/20 12:01:12;;;;;;;8.52;3.53;;;23.20;99.90;;;;;;5064942;28;20235;-83
2023/05/20 12:03:38;;;;;;;11.30;3.70;;;23.10;99.90;;;;;;5072333;28;20196;-78
2023/05/20 12:06:04;;;;;;;8.27;3.05;;;23.00;99.90;;;;;;5085101;28;20243;-84
2023/05/20 12:08:35;;;;;;;8.38;4.00;;;23.10;99.90;;;;;;5085221;28;20194;-88
2023/05/20 12:11:01;;;;;;;10.25;3.55;;;23.10;99.90;;;;;;5082424;28;20196;-79
2023/05/20 12:13:29;;;;;;;10.82;3.58;;;23.20;99.90;;;;;;5059517;28;20186;-82
2023/05/20 12:15:55;;;;;;;10.43;4.10;;;23.20;99.90;;;;;;5087747;28;20182;-80
2023/05/20 12:18:22;;;;;;;7.75;3.10;;;23.10;99.90;;;;;;5093379;28;20509;-86
2023/05/20 12:20:49;;;;;;;6.72;3.35;;;22.90;99.90;;;;;;5087915;28;20201;-78
2023/05/20 12:23:15;;;;;;;9.23;3.47;;;22.80;99.90;;;;;;5074930;28;20269;-84
2023/05/20 12:25:41;;;;;;;12.82;3.42;;;22.60;99.90;;;;;;5091604;28;20201;-77
2023/05/20 12:28:07;;;;;;;8.77;3.13;;;22.70;99.90;;;;;;5105265;27;20181;-78
2023/05/20 12:30:34;;;;;;;5.93;3.00;;;22.80;99.90;;;;;;5061000;28;20181;-81
2023/05/20 12:33:01;;;;;;;7.07;3.10;;;22.80;99.90;;;;;;5092006;27;20213;-84
2023/05/20 12:35:40;;;;;;;9.48;3.47;;;22.70;99.90;;;;;;5094925;27;20269;-83
2023/05/20 12:38:07;;;;;;;8.30;3.15;;;22.50;99.90;;;;;;5087171;28;20190;-78
2023/05/20 12:40:35;;;;;;;10.20;3.20;;;22.50;99.90;;;;;;5076348;28;21500;-80
2023/05/20 12:43:03;;;;;;;8.25;3.33;;;22.60;99.90;;;;;;5060456;28;20193;-84
2023/05/20 12:45:30;;;;;;;11.32;3.50;;;22.50;99.90;;;;;;5058033;28;20227;-82
2023/05/20 12:47:57;;;;;;;8.60;3.22;;;22.60;99.90;;;;;;5075885;28;20194;-78